Time;durP1;ratioP1;P1;durP2;ratioP2;P2;SDS_P1;SDS_P2;PMS_P1;PMS_P2;Temp;Humidity;BMP_temperature;BMP_pressure;BME280_temperature;BME280_humidity;BME280_pressure;Samples;Min_cycle;Max_cycle;Signal;HPM_P1;HPM_P2
2021/08/21 00:00:28;;;;;;;15.60;11.55;;;14.10;99.90;;;;;;5010959;28;20471;-86
2021/08/21 00:02:54;;;;;;;17.50;11.32;;;14.10;99.90;;;;;;5009571;28;20478;-85
2021/08/21 00:05:19;;;;;;;10.73;8.30;;;14.10;99.90;;;;;;5009533;28;20475;-85
2021/08/21 00:07:46;;;;;;;10.43;7.43;;;14.10;99.90;;;;;;5010825;28;20030;-85
2021/08/21 00:10:13;;;;;;;12.75;8.25;;;14.00;99.90;;;;;;5010962;28;20478;-85
2021/08/21 00:12:39;;;;;;;11.15;8.07;;;14.00;99.90;;;;;;5011455;28;20521;-85
2021/08/21 00:15:08;;;;;;;14.77;9.18;;;14.00;99.90;;;;;;5012869;28;20018;-85
2021/08/21 00:17:35;;;;;;;16.27;9.65;;;13.90;99.90;;;;;;5012242;28;20490;-85
2021/08/21 00:20:01;;;;;;;16.17;11.80;;;13.90;99.90;;;;;;5013484;28;20021;-85
2021/08/21 00:22:27;;;;;;;12.60;7.65;;;13.90;99.90;;;;;;5011766;28;20068;-85
2021/08/21 00:24:52;;;;;;;7.40;5.63;;;13.90;99.90;;;;;;5009156;28;20022;-85
2021/08/21 00:27:18;;;;;;;12.90;9.57;;;13.90;99.90;;;;;;5013196;28;20077;-85
2021/08/21 00:29:43;;;;;;;15.95;11.38;;;13.80;99.90;;;;;;5016078;28;20034;-85
2021/08/21 00:32:09;;;;;;;14.32;9.68;;;13.80;99.90;;;;;;5015504;28;20062;-85
2021/08/21 00:34:34;;;;;;;11.02;7.80;;;13.80;99.90;;;;;;5015979;28;20018;-85
2021/08/21 00:37:00;;;;;;;11.70;8.20;;;13.80;99.90;;;;;;5015695;28;20042;-86
2021/08/21 00:39:25;;;;;;;10.50;7.55;;;13.70;99.90;;;;;;5015653;28;20033;-85
2021/08/21 00:41:51;;;;;;;12.38;7.90;;;13.70;99.90;;;;;;5013972;28;20037;-86
2021/08/21 00:44:17;;;;;;;14.23;9.13;;;13.70;99.90;;;;;;5014665;28;20033;-85
2021/08/21 00:47:04;;;;;;;13.18;9.45;;;13.70;99.90;;;;;;5015073;28;20068;-85
2021/08/21 00:49:30;;;;;;;16.40;11.65;;;13.70;99.90;;;;;;5015806;28;20076;-85
2021/08/21 00:51:58;;;;;;;22.35;13.02;;;13.70;99.90;;;;;;5011838;28;20026;-86
2021/08/21 00:54:23;;;;;;;17.05;11.82;;;13.70;99.90;;;;;;5014402;28;20544;-85
2021/08/21 00:56:51;;;;;;;19.73;12.70;;;13.70;99.90;;;;;;5014646;28;20042;-85
2021/08/21 00:59:17;;;;;;;17.70;12.60;;;13.70;99.90;;;;;;5010794;28;20033;-85
2021/08/21 01:01:43;;;;;;;18.08;11.73;;;13.70;99.90;;;;;;5009684;28;20499;-86
2021/08/21 01:04:09;;;;;;;14.63;11.23;;;13.80;99.90;;;;;;5014530;28;20030;-85
2021/08/21 01:06:35;;;;;;;17.90;10.85;;;13.80;99.90;;;;;;5013909;28;20436;-85
2021/08/21 01:09:00;;;;;;;11.10;8.43;;;13.80;99.90;;;;;;5015113;28;20474;-85
2021/08/21 01:11:26;;;;;;;16.13;10.80;;;13.80;99.90;;;;;;5013631;28;20093;-86
2021/08/21 01:13:51;;;;;;;16.13;10.35;;;13.80;99.90;;;;;;5015674;28;20026;-86
2021/08/21 01:16:20;;;;;;;15.40;10.25;;;13.80;99.90;;;;;;5013952;28;20031;-85
2021/08/21 01:18:46;;;;;;;17.00;12.40;;;13.70;99.90;;;;;;5019118;28;20036;-86
2021/08/21 01:21:12;;;;;;;19.20;12.52;;;13.70;99.90;;;;;;5011071;28;20331;-85
2021/08/21 01:23:37;;;;;;;18.48;12.57;;;13.70;99.90;;;;;;5016452;28;20040;-85
2021/08/21 01:26:03;;;;;;;18.45;12.02;;;13.70;99.90;;;;;;5015392;28;20025;-85
2021/08/21 01:28:29;;;;;;;19.08;13.55;;;13.70;99.90;;;;;;5017777;28;20551;-85
2021/08/21 01:30:54;;;;;;;20.65;14.05;;;13.70;99.90;;;;;;5015588;28;20033;-86
2021/08/21 01:33:20;;;;;;;21.60;14.32;;;13.70;99.90;;;;;;5016900;28;20029;-85
2021/08/21 01:35:46;;;;;;;23.58;14.60;;;13.60;99.90;;;;;;5012695;28;20138;-86
2021/08/21 01:38:11;;;;;;;19.90;12.15;;;13.60;99.90;;;;;;5011392;28;20561;-85
2021/08/21 01:40:37;;;;;;;18.77;12.07;;;13.60;99.90;;;;;;5009194;28;20033;-85
2021/08/21 01:43:03;;;;;;;13.52;8.65;;;13.50;99.90;;;;;;5017098;28;20385;-85
2021/08/21 01:45:28;;;;;;;17.75;11.60;;;13.50;99.90;;;;;;5017583;28;20069;-85
2021/08/21 01:47:54;;;;;;;17.67;11.52;;;13.50;99.90;;;;;;5021237;28;20044;-86
2021/08/21 01:50:20;;;;;;;18.05;12.18;;;13.40;99.90;;;;;;5016829;28;20076;-86
2021/08/21 01:52:47;;;;;;;23.75;13.82;;;13.40;99.90;;;;;;5016527;28;20124;-85
2021/08/21 01:55:14;;;;;;;19.25;12.95;;;13.40;99.90;;;;;;5012096;28;20120;-85
2021/08/21 01:57:41;;;;;;;17.65;11.20;;;13.40;99.90;;;;;;5015806;28;20505;-85
2021/08/21 02:00:09;;;;;;;14.43;9.25;;;13.40;99.90;;;;;;5015336;28;20025;-86
2021/08/21 02:02:35;;;;;;;13.43;9.70;;;13.30;99.90;;;;;;5015539;28;20025;-87
2021/08/21 02:05:00;;;;;;;14.13;9.55;;;13.30;99.90;;;;;;5014167;28;20569;-86
2021/08/21 02:07:26;;;;;;;14.25;10.10;;;13.20;99.90;;;;;;5031092;28;20136;-85
2021/08/21 02:09:51;;;;;;;12.95;8.75;;;13.20;99.90;;;;;;5012717;28;20032;-85
2021/08/21 02:12:17;;;;;;;12.20;7.22;;;13.20;99.90;;;;;;5016209;28;20064;-86
2021/08/21 02:14:44;;;;;;;10.32;7.03;;;13.20;99.90;;;;;;5016230;28;20136;-86
2021/08/21 02:17:10;;;;;;;14.20;8.50;;;13.20;99.90;;;;;;5016886;28;20037;-86
2021/08/21 02:19:35;;;;;;;14.00;9.48;;;13.10;99.90;;;;;;5016377;28;20528;-85
2021/08/21 02:22:04;;;;;;;15.05;8.18;;;13.10;99.90;;;;;;5015447;28;20092;-86
2021/08/21 02:24:30;;;;;;;15.52;10.77;;;13.20;99.90;;;;;;5015256;28;20075;-86
2021/08/21 02:26:58;;;;;;;18.38;10.88;;;13.20;99.90;;;;;;5015728;28;20033;-86
2021/08/21 02:29:24;;;;;;;17.70;11.57;;;13.20;99.90;;;;;;5016168;28;20025;-86
2021/08/21 02:31:50;;;;;;;15.48;10.80;;;13.30;99.90;;;;;;5016370;28;20052;-86
2021/08/21 02:34:16;;;;;;;16.85;12.15;;;13.30;99.90;;;;;;5012348;28;20060;-86
2021/08/21 02:36:42;;;;;;;19.13;12.65;;;13.40;99.90;;;;;;5015684;28;20037;-86
2021/08/21 02:39:09;;;;;;;15.05;10.30;;;13.40;99.90;;;;;;5016655;28;20025;-86
2021/08/21 02:41:35;;;;;;;11.70;8.73;;;13.50;99.90;;;;;;5015111;28;20489;-85
2021/08/21 02:44:00;;;;;;;12.85;8.93;;;13.50;99.90;;;;;;5016608;28;20078;-86
2021/08/21 02:46:26;;;;;;;18.05;11.60;;;13.60;99.90;;;;;;5017138;28;20048;-86
2021/08/21 02:48:51;;;;;;;16.25;10.70;;;13.60;99.90;;;;;;5033527;28;20394;-86
2021/08/21 02:51:17;;;;;;;18.25;11.15;;;13.70;99.90;;;;;;5009075;28;20044;-86
2021/08/21 02:53:42;;;;;;;16.45;11.02;;;13.70;99.90;;;;;;5014919;28;20033;-86
2021/08/21 02:56:08;;;;;;;13.73;9.77;;;13.70;99.90;;;;;;5007514;28;20089;-86
2021/08/21 02:58:33;;;;;;;16.10;11.43;;;13.80;99.90;;;;;;5016072;28;20041;-86
2021/08/21 03:00:59;;;;;;;19.30;11.13;;;13.80;99.90;;;;;;5012995;28;20021;-86
2021/08/21 03:03:24;;;;;;;17.13;11.65;;;13.90;99.90;;;;;;5014587;28;20021;-87
2021/08/21 03:05:50;;;;;;;19.15;12.50;;;13.90;99.90;;;;;;5013942;28;20033;-86
2021/08/21 03:08:15;;;;;;;19.17;13.05;;;13.90;99.90;;;;;;5031803;28;20041;-86
2021/08/21 03:10:41;;;;;;;18.52;13.43;;;14.00;99.90;;;;;;5014399;28;20147;-86
2021/08/21 03:13:06;;;;;;;21.58;14.50;;;14.10;99.90;;;;;;5014805;28;20031;-86
2021/08/21 03:15:32;;;;;;;22.65;14.00;;;14.10;99.90;;;;;;5015206;28;20029;-86
2021/08/21 03:17:58;;;;;;;19.88;14.73;;;14.10;99.90;;;;;;5019566;28;20056;-86
2021/08/21 03:20:26;;;;;;;19.40;15.07;;;14.20;99.90;;;;;;5015458;28;20478;-86
2021/08/21 03:22:52;;;;;;;21.38;15.18;;;14.20;99.90;;;;;;5015138;28;20391;-86
2021/08/21 03:25:19;;;;;;;19.77;15.38;;;14.30;99.90;;;;;;5012435;28;20052;-86
2021/08/21 03:27:44;;;;;;;20.30;15.15;;;14.30;99.90;;;;;;5009009;28;20026;-87
2021/08/21 03:30:10;;;;;;;22.30;15.48;;;14.40;99.90;;;;;;5013789;28;20029;-87
2021/08/21 03:32:36;;;;;;;23.38;14.50;;;14.50;99.90;;;;;;5012786;28;20061;-87
2021/08/21 03:35:02;;;;;;;19.92;13.60;;;14.50;99.90;;;;;;5031586;28;20068;-87
2021/08/21 03:37:28;;;;;;;22.65;14.15;;;14.50;99.90;;;;;;5015525;28;20049;-86
2021/08/21 03:39:54;;;;;;;25.95;15.10;;;14.50;99.90;;;;;;5031266;28;20091;-86
2021/08/21 03:42:19;;;;;;;22.45;15.18;;;14.60;99.90;;;;;;5011069;28;20029;-86
2021/08/21 03:44:45;;;;;;;19.48;15.30;;;14.60;99.90;;;;;;5015307;28;20100;-86
2021/08/21 03:47:10;;;;;;;22.02;14.38;;;14.60;99.90;;;;;;5013581;28;20068;-87
2021/08/21 03:49:36;;;;;;;21.05;14.48;;;14.60;99.90;;;;;;5015531;28;20068;-86
2021/08/21 03:52:03;;;;;;;18.05;12.90;;;14.70;99.90;;;;;;5015347;28;20029;-86
2021/08/21 03:54:28;;;;;;;18.80;12.93;;;14.70;99.90;;;;;;5014265;28;20494;-87
2021/08/21 03:56:54;;;;;;;17.70;12.98;;;14.70;99.90;;;;;;5012998;28;20125;-87
2021/08/21 03:59:19;;;;;;;16.27;12.52;;;14.80;99.90;;;;;;5011863;28;20022;-87
2021/08/21 04:01:45;;;;;;;19.35;14.13;;;14.80;99.90;;;;;;5016986;28;20452;-87
2021/08/21 04:04:10;;;;;;;22.48;14.98;;;14.80;99.90;;;;;;5019582;28;20052;-86
2021/08/21 04:06:41;;;;;;;22.67;15.32;;;14.90;99.90;;;;;;5017726;28;20453;-87
2021/08/21 04:09:06;;;;;;;24.63;16.55;;;14.80;99.90;;;;;;5015847;28;20042;-87
2021/08/21 04:11:32;;;;;;;19.40;14.50;;;14.80;99.90;;;;;;5033716;28;20029;-87
2021/08/21 04:13:58;;;;;;;25.38;15.20;;;14.80;99.90;;;;;;5019070;28;20037;-87
2021/08/21 04:16:23;;;;;;;25.73;18.42;;;14.80;99.90;;;;;;5032619;28;20057;-87
2021/08/21 04:18:49;;;;;;;27.55;19.25;;;14.90;99.90;;;;;;5018946;28;20493;-87
2021/08/21 04:21:14;;;;;;;25.70;18.10;;;14.90;99.90;;;;;;5022014;28;20021;-86
2021/08/21 04:23:40;;;;;;;23.95;17.83;;;14.90;99.90;;;;;;5018685;28;20539;-87
2021/08/21 04:26:06;;;;;;;24.80;18.25;;;14.90;99.90;;;;;;5016787;28;20191;-87
2021/08/21 04:28:31;;;;;;;25.40;18.60;;;15.00;99.90;;;;;;5007143;28;20069;-87
2021/08/21 04:30:57;;;;;;;25.85;17.92;;;15.00;99.90;;;;;;5014990;28;20143;-87
2021/08/21 04:33:23;;;;;;;24.52;18.33;;;15.00;99.90;;;;;;5036816;28;20018;-87
2021/08/21 04:35:49;;;;;;;26.02;18.02;;;15.10;99.90;;;;;;5017549;28;20025;-86
2021/08/21 04:38:15;;;;;;;23.80;18.52;;;15.10;99.90;;;;;;5017565;28;20112;-87
2021/08/21 04:40:41;;;;;;;26.90;19.42;;;15.10;99.90;;;;;;5012329;28;20040;-87
2021/08/21 04:43:06;;;;;;;24.23;18.83;;;15.10;99.90;;;;;;5035519;28;20108;-86
2021/08/21 04:45:32;;;;;;;28.13;19.00;;;15.10;99.90;;;;;;5036976;28;20030;-87
2021/08/21 04:47:57;;;;;;;26.35;18.55;;;15.00;99.90;;;;;;5036958;28;20214;-86
2021/08/21 04:50:24;;;;;;;23.65;18.13;;;15.00;99.90;;;;;;5033374;28;20029;-87
2021/08/21 04:52:49;;;;;;;25.25;18.48;;;15.00;99.90;;;;;;5030088;28;20017;-87
2021/08/21 04:55:15;;;;;;;26.17;18.58;;;15.00;99.90;;;;;;5034785;28;20048;-86
2021/08/21 04:57:40;;;;;;;23.70;18.02;;;15.00;99.90;;;;;;5031783;28;20410;-87
2021/08/21 05:00:06;;;;;;;24.52;19.40;;;15.00;99.90;;;;;;5034998;28;20029;-86
2021/08/21 05:02:32;;;;;;;27.17;19.63;;;15.00;99.90;;;;;;5034870;28;20040;-87
2021/08/21 05:04:57;;;;;;;29.58;20.20;;;14.90;99.90;;;;;;5036112;28;20033;-87
2021/08/21 05:07:23;;;;;;;31.60;21.63;;;15.00;99.90;;;;;;5019062;28;20030;-87
2021/08/21 05:09:48;;;;;;;30.92;21.70;;;15.00;99.90;;;;;;5012485;28;20041;-87
2021/08/21 05:12:14;;;;;;;28.85;22.20;;;15.00;99.90;;;;;;5034235;28;20045;-86
2021/08/21 05:14:39;;;;;;;28.20;20.80;;;15.10;99.90;;;;;;5019134;28;20022;-86
2021/08/21 05:17:05;;;;;;;29.17;21.52;;;15.10;99.90;;;;;;5031891;28;20057;-86
2021/08/21 05:19:39;;;;;;;28.90;20.63;;;15.10;99.90;;;;;;5011146;28;20899;-87
2021/08/21 05:24:52;;;;;;;26.50;18.52;;;15.10;99.90;;;;;;5028711;28;20037;-86
2021/08/21 05:27:19;;;;;;;29.85;19.10;;;15.20;99.90;;;;;;5034486;28;20107;-87
2021/08/21 05:29:45;;;;;;;26.80;18.67;;;15.10;99.90;;;;;;5014971;28;20033;-86
2021/08/21 05:32:11;;;;;;;27.85;20.75;;;15.20;99.90;;;;;;5017350;28;20501;-86
2021/08/21 05:34:37;;;;;;;28.83;19.70;;;15.20;99.90;;;;;;5033965;28;20029;-87
2021/08/21 05:37:02;;;;;;;29.88;21.40;;;15.20;99.90;;;;;;5020606;28;20128;-87
2021/08/21 05:39:28;;;;;;;30.20;21.95;;;15.20;99.90;;;;;;5015613;28;20571;-85
2021/08/21 05:41:53;;;;;;;31.02;22.70;;;15.30;99.90;;;;;;5014501;28;20024;-85
2021/08/21 05:44:19;;;;;;;30.15;21.98;;;15.40;99.90;;;;;;5014975;28;20025;-85
2021/08/21 05:46:44;;;;;;;29.10;22.20;;;15.40;99.90;;;;;;5014315;28;20022;-86
2021/08/21 05:49:10;;;;;;;33.85;23.10;;;15.50;99.90;;;;;;5017869;28;20414;-86
2021/08/21 05:51:35;;;;;;;35.90;26.17;;;15.60;99.90;;;;;;5015840;28;20462;-86
2021/08/21 05:54:01;;;;;;;39.47;26.92;;;15.60;99.90;;;;;;5016387;28;20028;-87
2021/08/21 05:56:26;;;;;;;31.52;23.48;;;15.70;99.90;;;;;;5016846;28;20033;-87
2021/08/21 05:58:52;;;;;;;35.17;24.42;;;15.80;99.90;;;;;;5010404;28;20064;-86
2021/08/21 06:01:18;;;;;;;36.08;24.02;;;15.90;99.90;;;;;;5017869;28;20028;-86
2021/08/21 06:03:44;;;;;;;34.25;22.90;;;16.00;99.90;;;;;;5016437;28;20029;-86
2021/08/21 06:06:11;;;;;;;35.60;22.65;;;16.00;99.90;;;;;;5015820;28;20017;-87
2021/08/21 06:08:37;;;;;;;29.95;22.05;;;16.10;99.90;;;;;;5016577;28;20033;-88
2021/08/21 06:11:03;;;;;;;36.03;25.10;;;16.10;99.90;;;;;;5016027;28;20080;-87
2021/08/21 06:13:28;;;;;;;32.58;23.88;;;16.20;99.90;;;;;;5014538;28;20026;-86
2021/08/21 06:15:54;;;;;;;35.47;24.38;;;16.20;99.90;;;;;;5018684;28;20487;-86
2021/08/21 06:18:19;;;;;;;36.13;24.70;;;16.20;99.90;;;;;;5018171;28;20559;-85
2021/08/21 06:20:45;;;;;;;33.28;22.35;;;16.30;99.90;;;;;;5019478;28;20025;-86
2021/08/21 06:23:10;;;;;;;34.10;24.05;;;16.40;99.90;;;;;;5016849;28;20022;-86
2021/08/21 06:25:36;;;;;;;31.48;23.27;;;16.50;99.90;;;;;;5031646;28;20040;-87
2021/08/21 06:28:01;;;;;;;34.75;24.27;;;16.60;99.90;;;;;;5017146;28;20032;-86
2021/08/21 06:30:27;;;;;;;38.30;25.80;;;16.70;99.90;;;;;;5031986;28;20040;-86
2021/08/21 06:32:52;;;;;;;36.92;24.65;;;16.80;99.90;;;;;;5015740;28;20028;-86
2021/08/21 06:35:18;;;;;;;35.53;24.50;;;16.90;99.90;;;;;;5032873;28;20032;-86
2021/08/21 06:37:43;;;;;;;38.40;23.98;;;16.90;99.90;;;;;;5031838;28;20053;-86
2021/08/21 06:40:10;;;;;;;31.45;22.48;;;16.90;99.90;;;;;;5005271;28;20048;-86
2021/08/21 06:42:35;;;;;;;28.10;20.33;;;16.90;99.90;;;;;;5016467;28;20030;-87
2021/08/21 06:45:01;;;;;;;30.85;22.27;;;16.90;99.90;;;;;;5012476;28;20032;-86
2021/08/21 06:47:26;;;;;;;32.20;21.98;;;16.90;99.90;;;;;;5032892;28;20025;-86
2021/08/21 06:49:52;;;;;;;31.27;22.52;;;17.00;99.90;;;;;;5017923;28;20104;-86
2021/08/21 06:52:17;;;;;;;38.03;23.35;;;17.00;99.90;;;;;;5008401;28;20068;-87
2021/08/21 06:54:43;;;;;;;33.15;23.25;;;17.10;99.90;;;;;;5032335;28;22171;-87
2021/08/21 06:57:08;;;;;;;36.17;23.70;;;17.30;99.90;;;;;;5013546;28;20037;-86
2021/08/21 06:59:34;;;;;;;33.80;24.20;;;17.40;99.90;;;;;;5017004;28;20100;-86
2021/08/21 07:02:03;;;;;;;33.70;23.52;;;17.60;99.90;;;;;;5014863;28;20036;-86
2021/08/21 07:04:29;;;;;;;31.48;21.90;;;17.70;99.90;;;;;;5014979;28;20022;-86
2021/08/21 07:06:55;;;;;;;32.30;21.88;;;17.90;99.90;;;;;;5013949;28;20041;-86
2021/08/21 07:09:21;;;;;;;29.65;21.77;;;18.00;99.90;;;;;;5018120;28;20112;-86
2021/08/21 07:11:48;;;;;;;33.05;21.20;;;18.20;99.90;;;;;;5017751;28;20049;-86
2021/08/21 07:14:15;;;;;;;31.92;21.50;;;18.30;99.90;;;;;;5017860;28;20091;-86
2021/08/21 07:16:41;;;;;;;33.42;22.25;;;18.50;99.90;;;;;;5016745;28;20037;-87
2021/08/21 07:19:06;;;;;;;26.77;19.35;;;18.60;99.90;;;;;;5015100;28;20026;-85
2021/08/21 07:21:33;;;;;;;30.77;21.73;;;18.80;99.90;;;;;;5013478;28;20432;-85
2021/08/21 07:23:58;;;;;;;31.08;20.90;;;18.90;99.90;;;;;;5015298;28;20025;-88
2021/08/21 07:26:24;;;;;;;27.70;19.15;;;19.00;99.90;;;;;;5017304;28;20060;-87
2021/08/21 07:28:50;;;;;;;27.95;19.60;;;19.10;99.90;;;;;;5015917;28;20022;-91
2021/08/21 07:31:15;;;;;;;28.98;21.65;;;19.30;99.90;;;;;;5013765;28;20489;-85
2021/08/21 07:33:41;;;;;;;26.02;19.77;;;19.40;99.90;;;;;;5016182;28;20116;-86
2021/08/21 07:36:06;;;;;;;26.88;19.15;;;19.60;99.90;;;;;;5007638;28;20018;-86
2021/08/21 07:38:32;;;;;;;28.48;18.88;;;19.80;99.90;;;;;;5017764;28;20044;-86
2021/08/21 07:40:58;;;;;;;27.58;18.70;;;20.00;99.90;;;;;;5016000;28;20489;-87
2021/08/21 07:43:24;;;;;;;33.67;21.10;;;20.20;99.90;;;;;;5013791;28;20034;-87
2021/08/21 07:45:49;;;;;;;26.70;19.27;;;20.30;99.90;;;;;;5017246;28;20032;-87
2021/08/21 07:48:16;;;;;;;26.17;18.85;;;20.30;99.90;;;;;;5016158;28;20462;-87
2021/08/21 07:50:42;;;;;;;27.83;20.02;;;20.30;99.70;;;;;;5016457;28;20120;-86
2021/08/21 07:53:07;;;;;;;24.30;18.10;;;20.40;99.50;;;;;;5012742;28;20069;-86
2021/08/21 07:55:33;;;;;;;25.77;20.15;;;20.40;99.20;;;;;;5013415;28;20029;-88
2021/08/21 07:57:59;;;;;;;22.08;17.33;;;20.40;98.90;;;;;;5009258;28;20033;-87
2021/08/21 08:00:24;;;;;;;23.88;18.38;;;20.40;98.90;;;;;;5014962;28;20120;-87
2021/08/21 08:02:50;;;;;;;24.48;17.48;;;20.40;98.70;;;;;;5010091;28;20041;-88
2021/08/21 08:05:15;;;;;;;23.85;17.90;;;20.50;98.60;;;;;;5014650;28;20113;-88
2021/08/21 08:07:41;;;;;;;25.63;18.88;;;20.50;98.50;;;;;;5012637;28;20033;-87
2021/08/21 08:10:08;;;;;;;27.00;18.08;;;20.60;98.20;;;;;;5015025;28;20025;-87
2021/08/21 08:12:34;;;;;;;21.92;18.20;;;20.70;98.10;;;;;;5029950;28;20041;-87
2021/08/21 08:14:59;;;;;;;21.05;16.60;;;20.70;97.80;;;;;;5012855;28;20490;-86
2021/08/21 08:17:25;;;;;;;21.88;16.88;;;20.80;97.80;;;;;;5024167;28;20059;-86
2021/08/21 08:19:51;;;;;;;23.33;17.95;;;20.90;97.70;;;;;;5032628;28;20033;-85
2021/08/21 08:22:17;;;;;;;21.48;17.55;;;20.90;97.30;;;;;;5026870;28;20026;-85
2021/08/21 08:24:42;;;;;;;22.48;17.83;;;21.00;97.30;;;;;;5032929;28;20413;-86
2021/08/21 08:27:08;;;;;;;22.08;16.75;;;21.10;97.00;;;;;;5028805;28;20053;-86
2021/08/21 08:29:33;;;;;;;22.23;17.27;;;21.30;97.00;;;;;;5013908;28;20029;-86
2021/08/21 08:31:59;;;;;;;20.83;17.08;;;21.50;96.40;;;;;;5013327;28;20026;-86
2021/08/21 08:34:24;;;;;;;18.73;15.30;;;21.60;96.00;;;;;;5014612;28;20029;-86
2021/08/21 08:36:50;;;;;;;22.40;16.33;;;21.80;95.70;;;;;;5015906;28;20120;-87
2021/08/21 08:39:15;;;;;;;20.55;16.35;;;21.90;95.50;;;;;;5014620;28;20029;-85
2021/08/21 08:41:42;;;;;;;17.75;14.80;;;22.10;95.30;;;;;;5014539;28;20075;-86
2021/08/21 08:44:11;;;;;;;17.58;15.20;;;22.10;94.80;;;;;;5016494;28;20055;-87
2021/08/21 08:46:38;;;;;;;19.95;14.57;;;22.10;94.70;;;;;;5014583;28;20022;-88
2021/08/21 08:49:07;;;;;;;19.08;15.80;;;22.10;94.70;;;;;;5013267;28;20394;-87
2021/08/21 08:51:33;;;;;;;17.85;15.45;;;22.20;94.70;;;;;;5034621;28;20029;-87
2021/08/21 08:53:59;;;;;;;18.38;15.70;;;22.20;94.60;;;;;;5019029;28;20037;-87
2021/08/21 08:56:24;;;;;;;16.88;14.73;;;22.20;94.50;;;;;;5018473;28;20470;-86
2021/08/21 08:58:50;;;;;;;19.58;15.68;;;22.30;94.50;;;;;;5020186;28;20025;-87
2021/08/21 09:01:16;;;;;;;18.73;15.18;;;22.40;94.20;;;;;;5018673;28;20021;-86
2021/08/21 09:03:41;;;;;;;17.52;14.60;;;22.40;94.00;;;;;;5019144;28;20026;-87
2021/08/21 09:06:11;;;;;;;19.02;14.70;;;22.50;93.80;;;;;;5036434;28;20017;-87
2021/08/21 09:08:37;;;;;;;19.13;14.93;;;22.50;93.70;;;;;;5020414;28;20022;-87
2021/08/21 09:11:20;;;;;;;19.80;15.15;;;22.60;93.50;;;;;;5019247;28;20034;-86
2021/08/21 09:13:45;;;;;;;18.70;15.27;;;22.60;93.40;;;;;;5014808;28;20041;-85
2021/08/21 09:16:11;;;;;;;16.23;13.77;;;22.70;93.20;;;;;;5016890;28;20022;-85
2021/08/21 09:18:37;;;;;;;18.55;14.10;;;22.70;93.00;;;;;;5022844;28;20037;-85
2021/08/21 09:21:04;;;;;;;14.25;12.75;;;22.70;93.00;;;;;;5011435;28;20018;-86
2021/08/21 09:23:37;;;;;;;14.30;12.73;;;22.90;93.00;;;;;;5013502;28;20037;-86
2021/08/21 09:26:35;;;;;;;18.48;13.82;;;23.00;92.90;;;;;;5015525;28;20489;-86
2021/08/21 09:29:02;;;;;;;15.18;12.48;;;23.00;92.40;;;;;;5016213;28;20029;-86
2021/08/21 09:31:33;;;;;;;15.07;11.93;;;23.10;92.50;;;;;;5010623;28;20057;-86
2021/08/21 09:34:06;;;;;;;14.20;12.70;;;23.20;92.40;;;;;;5008752;28;20427;-86
2021/08/21 09:36:42;;;;;;;17.05;13.38;;;23.20;92.20;;;;;;5012831;28;20029;-87
2021/08/21 09:39:15;;;;;;;14.85;11.80;;;23.30;92.10;;;;;;5034746;28;20381;-86
2021/08/21 09:41:58;;;;;;;16.10;13.23;;;23.20;91.80;;;;;;5026574;28;20053;-86
2021/08/21 09:44:27;;;;;;;14.65;11.68;;;23.30;92.00;;;;;;5006975;28;20030;-86
2021/08/21 09:47:13;;;;;;;11.93;10.60;;;23.20;91.70;;;;;;5034096;28;20070;-85
2021/08/21 09:49:39;;;;;;;14.57;11.10;;;23.30;91.70;;;;;;5014766;28;20083;-86
2021/08/21 09:52:14;;;;;;;11.52;10.32;;;23.40;91.70;;;;;;5024928;28;20067;-86
2021/08/21 09:54:44;;;;;;;12.27;10.90;;;23.50;91.40;;;;;;5014978;28;20018;-87
2021/08/21 09:57:20;;;;;;;13.70;10.25;;;23.60;91.30;;;;;;5024623;28;20045;-87
2021/08/21 09:59:56;;;;;;;13.55;9.80;;;23.70;90.90;;;;;;5014723;28;20428;-86
2021/08/21 10:02:22;;;;;;;12.45;10.00;;;23.80;90.90;;;;;;5006463;28;20393;-86
2021/08/21 10:04:47;;;;;;;12.05;9.82;;;23.90;90.60;;;;;;5017541;28;20022;-86
2021/08/21 10:07:16;;;;;;;10.82;7.95;;;24.00;90.40;;;;;;5013223;28;20554;-86
2021/08/21 10:09:43;;;;;;;11.35;9.98;;;24.10;90.00;;;;;;5015658;28;20095;-85
2021/08/21 10:12:13;;;;;;;10.00;7.72;;;24.20;89.60;;;;;;5015431;28;20041;-86
2021/08/21 10:14:42;;;;;;;15.02;8.30;;;24.20;89.50;;;;;;5033733;28;20022;-86
2021/08/21 10:17:09;;;;;;;8.30;7.13;;;24.30;89.00;;;;;;5008663;28;20049;-86
2021/08/21 10:19:37;;;;;;;6.72;5.18;;;24.40;87.80;;;;;;5022412;28;20036;-86
2021/08/21 10:22:04;;;;;;;6.05;4.88;;;24.30;86.50;;;;;;5016896;28;20025;-87
2021/08/21 10:24:38;;;;;;;7.25;5.68;;;24.30;85.50;;;;;;5028383;28;20025;-86
2021/08/21 10:27:20;;;;;;;8.02;5.80;;;24.30;84.70;;;;;;5029719;28;20024;-85
2021/08/21 10:30:05;;;;;;;8.20;5.47;;;24.40;85.00;;;;;;5016489;28;20080;-87
2021/08/21 10:32:40;;;;;;;6.78;5.50;;;24.60;84.50;;;;;;5018228;28;20104;-86
2021/08/21 10:35:09;;;;;;;6.60;5.75;;;24.70;84.10;;;;;;5013650;28;20029;-86
2021/08/21 10:37:46;;;;;;;7.28;5.75;;;24.80;84.00;;;;;;5012974;28;20822;-86
2021/08/21 10:40:29;;;;;;;9.70;6.30;;;24.90;83.40;;;;;;5013863;28;20048;-87
2021/08/21 10:43:01;;;;;;;7.68;6.10;;;25.00;82.70;;;;;;5017958;28;20025;-86
2021/08/21 10:45:42;;;;;;;7.40;6.47;;;25.00;82.50;;;;;;5016492;28;20047;-86
2021/08/21 10:48:11;;;;;;;10.13;7.13;;;25.00;82.20;;;;;;5018298;28;20034;-86
2021/08/21 10:50:42;;;;;;;7.88;6.40;;;24.90;82.60;;;;;;5014702;28;20106;-86
2021/08/21 10:53:09;;;;;;;10.30;7.57;;;25.00;82.50;;;;;;5025769;28;20021;-85
2021/08/21 10:55:44;;;;;;;7.47;6.10;;;25.00;82.40;;;;;;5011765;28;20072;-86
2021/08/21 10:58:17;;;;;;;6.03;5.00;;;25.20;81.90;;;;;;5015283;28;20056;-86
2021/08/21 11:00:57;;;;;;;7.28;6.05;;;25.30;81.00;;;;;;5016328;28;20021;-85
2021/08/21 11:03:22;;;;;;;10.30;8.00;;;25.40;80.50;;;;;;5015160;28;20126;-86
2021/08/21 11:05:56;;;;;;;10.13;7.05;;;25.50;80.70;;;;;;5005987;28;20018;-85
2021/08/21 11:08:30;;;;;;;7.32;6.47;;;25.60;80.40;;;;;;5014778;28;20033;-86
2021/08/21 11:11:08;;;;;;;8.65;7.53;;;25.70;78.90;;;;;;5014069;28;20032;-85
2021/08/21 11:14:11;;;;;;;8.63;7.70;;;25.80;79.20;;;;;;5010470;28;20033;-86
2021/08/21 11:16:57;;;;;;;8.55;7.25;;;25.90;79.90;;;;;;5017135;28;20485;-86
2021/08/21 11:19:25;;;;;;;8.98;6.97;;;26.00;78.70;;;;;;5018389;28;20041;-85
2021/08/21 11:21:52;;;;;;;7.47;6.68;;;26.10;79.20;;;;;;5006753;28;20075;-86
2021/08/21 11:24:29;;;;;;;7.78;5.85;;;26.20;78.50;;;;;;5016456;28;20064;-86
2021/08/21 11:27:22;;;;;;;6.97;5.88;;;26.40;78.00;;;;;;5017553;28;20025;-86
2021/08/21 11:30:27;;;;;;;9.25;6.88;;;26.70;77.10;;;;;;5015078;28;20064;-86
2021/08/21 11:33:08;;;;;;;11.13;7.47;;;26.90;74.70;;;;;;5027350;28;20034;-86
2021/08/21 11:35:54;;;;;;;7.07;6.28;;;26.70;75.10;;;;;;5015592;28;20045;-86
2021/08/21 11:38:31;;;;;;;6.18;5.57;;;26.60;75.50;;;;;;5023972;28;20108;-86
2021/08/21 11:40:59;;;;;;;7.25;5.70;;;26.70;75.30;;;;;;5016321;28;20048;-86
2021/08/21 11:43:33;;;;;;;6.65;5.35;;;26.70;75.10;;;;;;5015742;28;20053;-85
2021/08/21 11:46:01;;;;;;;8.38;5.88;;;26.70;74.90;;;;;;5014643;28;20093;-91
2021/08/21 11:48:31;;;;;;;6.10;4.75;;;26.70;74.10;;;;;;5014296;28;20129;-91
2021/08/21 11:50:58;;;;;;;5.88;5.20;;;26.60;74.20;;;;;;5014749;28;20022;-89
2021/08/21 11:53:31;;;;;;;5.45;4.65;;;26.50;74.10;;;;;;5006754;28;20029;-92
2021/08/21 11:55:58;;;;;;;5.05;4.55;;;26.60;74.30;;;;;;5013041;28;20075;-90
2021/08/21 11:58:34;;;;;;;5.22;4.28;;;26.60;74.10;;;;;;5016093;28;20091;-90
2021/08/21 12:01:04;;;;;;;5.50;4.10;;;26.60;73.60;;;;;;5008410;28;20022;-91
2021/08/21 12:06:37;;;;;;;5.45;3.30;;;26.60;74.20;;;;;;5033583;28;20037;-90
2021/08/21 12:09:09;;;;;;;4.07;2.80;;;26.60;73.20;;;;;;5016478;28;20033;-91
2021/08/21 12:11:36;;;;;;;5.40;3.45;;;26.50;74.20;;;;;;5017784;28;20025;-91
2021/08/21 12:14:02;;;;;;;4.80;3.22;;;26.50;73.90;;;;;;5014578;28;20478;-91
2021/08/21 12:16:30;;;;;;;3.70;2.63;;;26.50;74.20;;;;;;5001832;28;20089;-91
2021/08/21 12:18:57;;;;;;;4.20;2.67;;;26.60;73.90;;;;;;5002333;28;20559;-91
2021/08/21 12:21:24;;;;;;;4.47;3.10;;;26.60;72.40;;;;;;5012817;28;20030;-91
2021/08/21 12:23:51;;;;;;;3.90;2.70;;;26.60;72.10;;;;;;5013073;28;20028;-91
2021/08/21 12:26:52;;;;;;;3.22;2.38;;;26.70;71.50;;;;;;5033374;28;20026;-91
2021/08/21 12:29:28;;;;;;;4.78;3.03;;;26.90;71.70;;;;;;5036246;28;20037;-90
2021/08/21 12:31:54;;;;;;;4.03;2.85;;;27.00;70.40;;;;;;5019764;28;20028;-91
2021/08/21 12:34:24;;;;;;;4.00;2.30;;;27.10;69.70;;;;;;5007416;28;20050;-90
2021/08/21 12:36:50;;;;;;;3.13;2.15;;;27.20;69.30;;;;;;5021065;28;20112;-90
2021/08/21 12:39:23;;;;;;;3.00;1.77;;;27.30;69.40;;;;;;5019709;28;20025;-91